createdAt,value
2022-11-16T00:01:48.851Z,11.20
2022-11-16T00:04:16.682Z,10.60
2022-11-16T00:06:44.204Z,10.20
2022-11-16T00:09:28.917Z,10.55
2022-11-16T00:11:58.814Z,10.85
2022-11-16T00:14:28.976Z,10.50
2022-11-16T00:16:57.344Z,10.98
2022-11-16T00:19:25.424Z,10.75
2022-11-16T00:21:53.863Z,10.98
2022-11-16T00:24:24.109Z,12.40
2022-11-16T00:26:54.454Z,14.90
2022-11-16T00:29:24.415Z,14.00
2022-11-16T00:31:52.673Z,12.65
2022-11-16T00:34:22.744Z,12.30
2022-11-16T00:36:52.314Z,11.63
2022-11-16T00:39:19.989Z,11.77
2022-11-16T00:41:48.174Z,11.45
2022-11-16T00:44:16.235Z,11.05
2022-11-16T00:46:45.188Z,10.15
2022-11-16T00:49:12.981Z,10.15
2022-11-16T00:51:40.432Z,10.95
2022-11-16T00:54:10.065Z,11.65
2022-11-16T00:56:38.460Z,11.43
2022-11-16T00:59:07.024Z,10.80
2022-11-16T01:01:34.739Z,11.40
2022-11-16T01:04:03.073Z,10.63
2022-11-16T01:06:30.507Z,10.90
2022-11-16T01:08:57.684Z,12.00
2022-11-16T01:11:43.985Z,10.50
2022-11-16T01:14:11.650Z,11.40
2022-11-16T01:16:39.169Z,10.48
2022-11-16T01:19:06.643Z,10.30
2022-11-16T01:21:34.685Z,12.10
2022-11-16T01:24:02.253Z,11.25
2022-11-16T01:26:30.026Z,11.07
2022-11-16T01:28:59.053Z,11.23
2022-11-16T01:31:28.959Z,10.77
2022-11-16T01:33:57.192Z,11.05
2022-11-16T01:36:27.725Z,10.48
2022-11-16T01:38:57.254Z,10.35
2022-11-16T01:41:28.143Z,10.00
2022-11-16T01:44:02.399Z,10.48
2022-11-16T01:46:46.234Z,9.63
2022-11-16T01:49:20.539Z,9.82
2022-11-16T01:51:55.167Z,9.70
2022-11-16T01:54:25.237Z,9.55
2022-11-16T01:56:57.393Z,9.80
2022-11-16T01:59:36.877Z,9.65
2022-11-16T02:02:05.871Z,9.77
2022-11-16T02:04:34.001Z,9.70
2022-11-16T02:07:23.804Z,9.68
2022-11-16T02:10:19.049Z,9.85
2022-11-16T02:13:19.489Z,9.63
2022-11-16T02:15:48.336Z,9.95
2022-11-16T02:18:33.663Z,9.68
2022-11-16T02:21:59.758Z,10.57
2022-11-16T02:24:35.694Z,9.95
2022-11-16T02:27:26.878Z,10.90
2022-11-16T02:29:56.073Z,10.60
2022-11-16T02:32:32.608Z,10.18
2022-11-16T02:35:08.031Z,10.55
2022-11-16T02:37:40.063Z,10.43
2022-11-16T02:40:12.200Z,10.30
2022-11-16T02:42:46.364Z,10.63
2022-11-16T02:45:20.525Z,11.27
2022-11-16T02:47:51.076Z,11.20
2022-11-16T02:50:24.458Z,10.75
2022-11-16T02:52:53.864Z,11.18
2022-11-16T02:55:22.910Z,10.75
2022-11-16T02:57:57.745Z,10.32
2022-11-16T03:00:44.072Z,10.77
2022-11-16T03:03:23.424Z,10.23
2022-11-16T03:05:58.624Z,10.50
2022-11-16T03:08:36.752Z,10.27
2022-11-16T03:11:27.318Z,11.20
2022-11-16T03:14:14.090Z,10.95
2022-11-16T03:16:49.224Z,11.27
2022-11-16T03:19:26.952Z,11.00
2022-11-16T03:22:18.850Z,10.82
2022-11-16T03:24:46.581Z,11.85
2022-11-16T03:27:32.631Z,11.27
2022-11-16T03:30:06.214Z,11.40
2022-11-16T03:32:51.449Z,11.77
2022-11-16T03:35:49.745Z,13.05
2022-11-16T03:38:21.107Z,12.52
2022-11-16T03:40:51.190Z,11.82
2022-11-16T03:43:21.096Z,12.50
2022-11-16T03:45:49.336Z,11.80
2022-11-16T03:48:17.078Z,11.80
2022-11-16T03:50:46.103Z,11.00
2022-11-16T03:53:14.760Z,10.50
2022-11-16T03:55:46.977Z,11.50
2022-11-16T03:58:19.037Z,11.00
2022-11-16T04:00:46.927Z,11.07
2022-11-16T04:03:14.809Z,11.60
2022-11-16T04:06:03.617Z,10.75
2022-11-16T04:08:49.478Z,11.20
2022-11-16T04:11:39.248Z,10.93
2022-11-16T04:14:33.889Z,11.85
2022-11-16T04:17:19.596Z,11.60
2022-11-16T04:20:05.426Z,11.88
2022-11-16T04:22:56.112Z,11.32
2022-11-16T04:25:33.085Z,11.65
2022-11-16T04:28:16.539Z,11.52
2022-11-16T04:31:13.148Z,11.80
2022-11-16T04:34:04.873Z,11.55
2022-11-16T04:36:51.044Z,11.50
2022-11-16T04:42:04.773Z,13.80
2022-11-16T04:44:55.840Z,13.18
2022-11-16T04:47:26.249Z,13.07
2022-11-16T04:49:53.513Z,13.13
2022-11-16T04:52:21.784Z,13.15
2022-11-16T04:54:49.578Z,13.10
2022-11-16T04:57:18.559Z,12.75
2022-11-16T04:59:48.354Z,12.95
2022-11-16T05:02:15.562Z,13.52
2022-11-16T05:04:48.610Z,12.30
2022-11-16T05:07:17.027Z,12.23
2022-11-16T05:09:48.719Z,11.55
2022-11-16T05:12:25.598Z,11.55
2022-11-16T05:14:57.329Z,11.73
2022-11-16T05:17:28.038Z,11.88
2022-11-16T05:20:15.874Z,12.05
2022-11-16T05:22:57.149Z,11.77
2022-11-16T05:25:29.315Z,12.02
2022-11-16T05:27:59.365Z,11.77
2022-11-16T05:30:29.898Z,11.77
2022-11-16T05:33:00.488Z,12.40
2022-11-16T05:35:30.491Z,12.07
2022-11-16T05:37:59.446Z,12.27
2022-11-16T05:40:26.836Z,12.30
2022-11-16T05:42:58.896Z,11.68
2022-11-16T05:45:29.288Z,11.50
2022-11-16T05:47:58.947Z,11.32
2022-11-16T05:50:26.962Z,12.48
2022-11-16T05:53:10.417Z,11.63
2022-11-16T05:55:38.642Z,12.30
2022-11-16T05:58:06.056Z,12.60
2022-11-16T06:00:34.455Z,11.50
2022-11-16T06:03:02.511Z,12.15
2022-11-16T06:05:40.007Z,10.40
2022-11-16T06:08:08.764Z,11.65
2022-11-16T06:10:37.240Z,11.68
2022-11-16T06:13:06.100Z,8.95
2022-11-16T06:15:38.914Z,11.82
2022-11-16T06:18:08.977Z,9.52
2022-11-16T06:20:38.975Z,11.85
2022-11-16T06:23:08.031Z,8.70
2022-11-16T06:25:39.077Z,11.50
2022-11-16T06:28:08.294Z,8.25
2022-11-16T06:30:38.801Z,7.88
2022-11-16T06:33:07.367Z,10.73
2022-11-16T06:35:35.273Z,10.13
2022-11-16T06:38:03.505Z,8.27
2022-11-16T06:40:30.890Z,10.20
2022-11-16T06:43:00.449Z,9.50
2022-11-16T06:45:27.780Z,10.00
2022-11-16T06:47:57.503Z,11.27
2022-11-16T06:50:25.663Z,10.05
2022-11-16T06:52:53.161Z,10.60
2022-11-16T06:55:20.971Z,11.57
2022-11-16T06:57:48.819Z,8.75
2022-11-16T07:00:17.470Z,11.35
2022-11-16T07:02:45.915Z,7.93
2022-11-16T07:05:16.483Z,9.98
2022-11-16T07:07:45.895Z,11.65
2022-11-16T07:10:14.028Z,11.55
2022-11-16T07:12:42.610Z,10.98
2022-11-16T07:15:10.156Z,9.10
2022-11-16T07:17:41.223Z,10.48
2022-11-16T07:20:09.395Z,8.77
2022-11-16T07:22:37.598Z,9.57
2022-11-16T07:25:05.696Z,10.20
2022-11-16T07:27:32.852Z,10.05
2022-11-16T07:30:02.435Z,11.70
2022-11-16T07:33:52.546Z,11.38
2022-11-16T07:37:35.261Z,11.02
2022-11-16T07:40:21.594Z,10.52
2022-11-16T07:42:49.796Z,8.88
2022-11-16T07:45:20.033Z,8.88
2022-11-16T07:48:00.745Z,9.00
2022-11-16T07:50:52.805Z,9.82
2022-11-16T07:53:20.912Z,9.25
2022-11-16T07:55:54.779Z,9.30
2022-11-16T07:58:24.697Z,13.00
2022-11-16T08:00:53.929Z,10.95
2022-11-16T08:03:24.630Z,12.82
2022-11-16T08:06:03.248Z,12.85
2022-11-16T08:08:30.998Z,13.20
2022-11-16T08:11:08.168Z,13.68
2022-11-16T08:13:38.065Z,14.88
2022-11-16T08:16:11.120Z,15.68
2022-11-16T08:18:41.934Z,15.45
2022-11-16T08:21:11.597Z,14.95
2022-11-16T08:23:42.690Z,16.13
2022-11-16T08:26:16.243Z,16.52
2022-11-16T08:28:51.141Z,16.58
2022-11-16T08:31:26.948Z,16.05
2022-11-16T08:34:01.068Z,16.25
2022-11-16T08:36:29.246Z,17.25
2022-11-16T08:38:57.012Z,18.08
2022-11-16T08:41:24.818Z,17.27
2022-11-16T08:43:53.731Z,16.75
2022-11-16T08:46:22.901Z,16.27
2022-11-16T08:48:57.643Z,16.30
2022-11-16T08:51:26.018Z,16.80
2022-11-16T08:54:05.343Z,17.08
2022-11-16T08:56:35.334Z,17.98
2022-11-16T08:59:03.708Z,17.38
2022-11-16T09:01:33.796Z,17.33
2022-11-16T09:04:01.129Z,17.65
2022-11-16T09:06:28.569Z,18.92
2022-11-16T09:08:56.304Z,19.00
2022-11-16T09:11:25.738Z,18.55
2022-11-16T09:13:55.032Z,18.60
2022-11-16T09:16:23.279Z,18.05
2022-11-16T09:18:51.963Z,18.25
2022-11-16T09:21:22.272Z,18.83
2022-11-16T09:23:50.641Z,15.98
2022-11-16T09:26:21.473Z,16.85
2022-11-16T09:29:01.462Z,17.17
2022-11-16T09:31:31.707Z,18.05
2022-11-16T09:33:59.720Z,17.05
2022-11-16T09:36:28.971Z,14.30
2022-11-16T09:42:10.478Z,17.45
2022-11-16T09:44:47.176Z,15.27
2022-11-16T09:47:52.023Z,19.52
2022-11-16T09:50:32.404Z,18.55
2022-11-16T09:53:15.091Z,18.90
2022-11-16T09:55:54.687Z,20.70
2022-11-16T09:58:28.501Z,18.80
2022-11-16T10:01:16.439Z,19.85
2022-11-16T10:03:50.518Z,19.45
2022-11-16T10:06:28.234Z,20.55
2022-11-16T10:08:56.976Z,19.17
2022-11-16T10:11:42.204Z,20.63
2022-11-16T10:14:38.444Z,20.38
2022-11-16T10:17:08.726Z,20.05
2022-11-16T10:19:44.170Z,19.60
2022-11-16T10:22:27.164Z,20.95
2022-11-16T10:24:58.363Z,20.67
2022-11-16T10:27:39.546Z,18.95
2022-11-16T10:30:16.755Z,20.65
2022-11-16T10:32:59.836Z,20.63
2022-11-16T10:35:34.307Z,19.55
2022-11-16T10:38:09.556Z,19.83
2022-11-16T10:40:38.522Z,14.43
2022-11-16T10:43:18.213Z,17.90
2022-11-16T10:45:58.205Z,14.65
2022-11-16T10:48:44.874Z,17.48
2022-11-16T10:51:12.214Z,19.52
2022-11-16T10:53:42.715Z,20.05
2022-11-16T10:56:22.786Z,19.17
2022-11-16T10:59:12.881Z,18.10
2022-11-16T11:01:42.080Z,18.02
2022-11-16T11:04:39.307Z,18.35
2022-11-16T11:07:29.794Z,18.27
2022-11-16T11:09:57.851Z,17.73
2022-11-16T11:12:38.858Z,16.20
2022-11-16T11:15:12.708Z,15.95
2022-11-16T11:17:44.789Z,16.83
2022-11-16T11:20:18.413Z,16.10
2022-11-16T11:23:00.840Z,15.98
2022-11-16T11:25:37.352Z,16.55
2022-11-16T11:28:17.164Z,15.82
2022-11-16T11:31:04.342Z,15.35
2022-11-16T11:33:54.581Z,15.98
2022-11-16T11:36:25.338Z,15.35
2022-11-16T11:39:00.722Z,15.75
2022-11-16T11:41:40.303Z,15.30
2022-11-16T11:44:17.769Z,12.45
2022-11-16T11:50:04.935Z,16.23
2022-11-16T11:52:39.759Z,16.13
2022-11-16T11:55:08.541Z,17.10
2022-11-16T11:57:42.751Z,16.85
2022-11-16T12:00:15.707Z,15.70
2022-11-16T12:03:05.136Z,14.75
2022-11-16T12:05:48.935Z,15.85
2022-11-16T12:08:34.691Z,16.70
2022-11-16T12:11:31.067Z,17.05
2022-11-16T12:14:23.357Z,16.10
2022-11-16T12:17:22.192Z,15.88
2022-11-16T12:20:07.900Z,16.23
2022-11-16T12:22:56.558Z,15.82
2022-11-16T12:25:52.741Z,15.90
2022-11-16T12:28:57.734Z,15.60
2022-11-16T12:31:45.242Z,15.32
2022-11-16T12:34:41.797Z,13.90
2022-11-16T12:37:39.558Z,14.07
2022-11-16T12:40:26.945Z,14.85
2022-11-16T12:42:56.931Z,14.02
2022-11-16T12:46:12.264Z,14.23
2022-11-16T12:48:44.912Z,13.18
2022-11-16T12:51:32.084Z,13.13
2022-11-16T12:54:14.457Z,12.15
2022-11-16T12:57:07.177Z,13.68
2022-11-16T12:59:53.463Z,12.27
2022-11-16T13:02:45.325Z,12.90
2022-11-16T13:05:40.635Z,13.35
2022-11-16T13:08:40.403Z,13.50
2022-11-16T13:11:24.887Z,12.90
2022-11-16T13:13:58.094Z,13.43
2022-11-16T13:16:26.432Z,13.02
2022-11-16T13:18:55.654Z,13.48
2022-11-16T13:21:29.264Z,12.85
2022-11-16T13:24:22.639Z,13.48
2022-11-16T13:27:04.014Z,13.45
2022-11-16T13:29:47.056Z,13.52
2022-11-16T13:32:21.399Z,14.38
2022-11-16T13:34:49.545Z,14.15
2022-11-16T13:37:38.905Z,13.02
2022-11-16T13:40:06.971Z,14.73
2022-11-16T13:42:57.996Z,12.68
2022-11-16T13:45:31.932Z,13.20
2022-11-16T13:48:00.831Z,15.13
2022-11-16T13:50:38.169Z,13.00
2022-11-16T13:56:08.254Z,15.18
2022-11-16T13:58:38.152Z,13.00
2022-11-16T14:01:11.079Z,12.52
2022-11-16T14:03:40.857Z,13.88
2022-11-16T14:06:14.107Z,12.38
2022-11-16T14:08:46.642Z,13.55
2022-11-16T14:11:35.849Z,14.25
2022-11-16T14:14:08.047Z,14.80
2022-11-16T14:16:50.249Z,14.20
2022-11-16T14:19:54.808Z,15.30
2022-11-16T14:22:53.912Z,13.88
2022-11-16T14:25:33.787Z,14.30
2022-11-16T14:28:23.211Z,13.35
2022-11-16T14:31:14.873Z,13.18
2022-11-16T14:33:42.923Z,13.85
2022-11-16T14:36:11.422Z,14.82
2022-11-16T14:38:46.756Z,13.18
2022-11-16T14:41:21.948Z,15.25
2022-11-16T14:43:54.696Z,15.02
2022-11-16T14:46:36.572Z,15.20
2022-11-16T14:49:05.316Z,14.38
2022-11-16T14:51:36.114Z,13.48
2022-11-16T14:54:30.487Z,14.82
2022-11-16T14:57:03.109Z,14.80
2022-11-16T14:59:31.529Z,19.73
2022-11-16T15:02:05.219Z,21.23
2022-11-16T15:04:33.176Z,19.98
2022-11-16T15:07:05.358Z,27.95
2022-11-16T15:09:40.245Z,24.52
2022-11-16T15:12:33.853Z,26.40
2022-11-16T15:15:06.892Z,28.38
2022-11-16T15:17:34.865Z,29.05
2022-11-16T15:20:14.555Z,29.30
2022-11-16T15:22:45.363Z,27.60
2022-11-16T15:25:35.908Z,30.10
2022-11-16T15:28:17.471Z,29.55
2022-11-16T15:31:07.947Z,32.65
2022-11-16T15:33:41.711Z,30.48
2022-11-16T15:36:41.330Z,28.95
2022-11-16T15:39:24.841Z,32.63
2022-11-16T15:41:52.756Z,32.58
2022-11-16T15:44:22.882Z,32.83
2022-11-16T15:46:53.673Z,33.33
2022-11-16T15:49:20.917Z,32.22
2022-11-16T15:51:48.090Z,34.00
2022-11-16T15:54:23.795Z,33.75
2022-11-16T15:56:53.751Z,33.10
2022-11-16T15:59:31.774Z,30.67
2022-11-16T16:01:59.358Z,31.02
2022-11-16T16:04:29.288Z,30.30
2022-11-16T16:06:59.445Z,30.30
2022-11-16T16:09:31.911Z,28.30
2022-11-16T16:12:24.876Z,29.58
2022-11-16T16:14:53.166Z,30.15
2022-11-16T16:17:29.736Z,30.20
2022-11-16T16:20:02.675Z,28.52
2022-11-16T16:22:34.180Z,29.05
2022-11-16T16:25:02.686Z,29.55
2022-11-16T16:27:32.235Z,29.15
2022-11-16T16:30:06.104Z,30.55
2022-11-16T16:32:36.806Z,30.20
2022-11-16T16:35:07.620Z,31.77
2022-11-16T16:37:37.315Z,33.55
2022-11-16T16:40:05.145Z,31.70
2022-11-16T16:42:33.187Z,30.50
2022-11-16T16:45:02.147Z,29.73
2022-11-16T16:47:32.014Z,28.88
2022-11-16T16:49:59.697Z,28.92
2022-11-16T16:52:27.949Z,28.73
2022-11-16T16:54:55.308Z,27.70
2022-11-16T16:57:22.845Z,26.00
2022-11-16T16:59:50.046Z,25.85
2022-11-16T17:02:17.559Z,25.48
2022-11-16T17:04:47.840Z,23.98
2022-11-16T17:07:16.418Z,25.17
2022-11-16T17:09:44.168Z,25.27
2022-11-16T17:12:12.412Z,24.17
2022-11-16T17:14:39.978Z,24.58
2022-11-16T17:17:07.590Z,24.20
2022-11-16T17:19:34.872Z,24.20
2022-11-16T17:22:02.127Z,25.15
2022-11-16T17:24:29.365Z,23.77
2022-11-16T17:26:57.058Z,21.75
2022-11-16T17:29:25.382Z,22.90
2022-11-16T17:31:52.641Z,19.80
2022-11-16T17:34:20.509Z,23.35
2022-11-16T17:36:47.888Z,20.33
2022-11-16T17:39:16.253Z,21.80
2022-11-16T17:41:45.791Z,22.13
2022-11-16T17:44:17.170Z,21.88
2022-11-16T17:46:47.438Z,22.42
2022-11-16T17:49:16.492Z,21.33
2022-11-16T17:51:43.880Z,21.52
2022-11-16T17:54:11.040Z,22.23
2022-11-16T17:56:38.820Z,19.75
2022-11-16T17:59:06.321Z,19.40
2022-11-16T18:01:36.173Z,23.63
2022-11-16T18:04:05.059Z,22.33
2022-11-16T18:06:33.341Z,23.13
2022-11-16T18:09:00.743Z,22.75
2022-11-16T18:11:28.956Z,21.63
2022-11-16T18:14:01.379Z,23.55
2022-11-16T18:16:31.933Z,22.58
2022-11-16T18:19:04.487Z,23.17
2022-11-16T18:21:34.052Z,22.90
2022-11-16T18:24:01.369Z,22.80
2022-11-16T18:26:28.730Z,22.77
2022-11-16T18:28:57.412Z,22.85
2022-11-16T18:31:25.129Z,22.45
2022-11-16T18:33:53.364Z,22.42
2022-11-16T18:36:22.346Z,23.02
2022-11-16T18:38:50.285Z,22.52
2022-11-16T18:41:26.487Z,22.02
2022-11-16T18:43:56.811Z,21.63
2022-11-16T18:46:28.553Z,21.73
2022-11-16T18:48:56.881Z,21.60
2022-11-16T18:51:27.199Z,19.27
2022-11-16T18:53:55.449Z,19.65
2022-11-16T18:56:23.783Z,21.05
2022-11-16T18:58:52.896Z,20.98
2022-11-16T19:01:23.561Z,19.42
2022-11-16T19:03:52.671Z,18.33
2022-11-16T19:06:21.968Z,20.25
2022-11-16T19:09:04.046Z,19.40
2022-11-16T19:11:31.358Z,19.95
2022-11-16T19:14:08.036Z,20.33
2022-11-16T19:16:36.479Z,18.80
2022-11-16T19:19:04.558Z,19.77
2022-11-16T19:21:32.067Z,20.23
2022-11-16T19:23:59.299Z,17.13
2022-11-16T19:26:27.967Z,16.85
2022-11-16T19:28:55.690Z,15.90
2022-11-16T19:31:29.025Z,19.20
2022-11-16T19:34:16.976Z,15.93
2022-11-16T19:36:45.149Z,20.50
2022-11-16T19:39:12.299Z,18.70
2022-11-16T19:41:39.538Z,18.08
2022-11-16T19:44:06.822Z,14.52
2022-11-16T19:46:36.095Z,14.63
2022-11-16T19:49:03.839Z,16.33
2022-11-16T19:51:33.283Z,15.75
2022-11-16T19:54:02.697Z,16.33
2022-11-16T19:56:30.474Z,16.08
2022-11-16T19:58:57.953Z,16.08
2022-11-16T20:01:28.976Z,19.20
2022-11-16T20:04:02.365Z,18.80
2022-11-16T20:06:36.623Z,19.08
2022-11-16T20:09:13.236Z,19.05
2022-11-16T20:11:41.964Z,17.55
2022-11-16T20:14:11.942Z,19.65
2022-11-16T20:16:41.254Z,18.45
2022-11-16T20:19:10.031Z,17.17
2022-11-16T20:21:42.679Z,18.40
2022-11-16T20:24:13.392Z,17.98
2022-11-16T20:26:48.879Z,17.55
2022-11-16T20:29:19.425Z,17.55
2022-11-16T20:31:47.399Z,17.95
2022-11-16T20:34:16.970Z,19.65
2022-11-16T20:36:49.808Z,17.85
2022-11-16T20:39:21.079Z,19.48
2022-11-16T20:41:48.500Z,19.85
2022-11-16T20:44:24.181Z,18.63
2022-11-16T20:46:52.920Z,19.13
2022-11-16T20:49:20.859Z,17.17
2022-11-16T20:51:50.682Z,21.50
2022-11-16T20:54:17.835Z,19.55
2022-11-16T20:56:44.992Z,20.02
2022-11-16T20:59:12.197Z,21.80
2022-11-16T21:01:41.761Z,20.88
2022-11-16T21:04:11.043Z,21.73
2022-11-16T21:06:38.234Z,20.73
2022-11-16T21:09:05.708Z,22.65
2022-11-16T21:11:52.334Z,21.67
2022-11-16T21:14:21.839Z,22.27
2022-11-16T21:16:50.888Z,22.65
2022-11-16T21:19:18.731Z,21.80
2022-11-16T21:21:46.077Z,23.27
2022-11-16T21:24:13.321Z,23.75
2022-11-16T21:26:40.524Z,23.70
2022-11-16T21:29:07.967Z,23.42
2022-11-16T21:31:37.696Z,23.35
2022-11-16T21:34:06.005Z,24.33
2022-11-16T21:36:33.886Z,23.00
2022-11-16T21:39:01.535Z,23.38
2022-11-16T21:41:29.070Z,22.60
2022-11-16T21:43:56.366Z,23.33
2022-11-16T21:46:25.935Z,22.10
2022-11-16T21:48:56.770Z,22.40
2022-11-16T21:51:27.404Z,24.15
2022-11-16T21:53:55.264Z,22.20
2022-11-16T21:56:24.789Z,23.80
2022-11-16T21:58:53.610Z,23.40
2022-11-16T22:01:22.850Z,23.13
2022-11-16T22:04:10.403Z,23.45
2022-11-16T22:06:56.406Z,23.25
2022-11-16T22:09:23.776Z,21.92
2022-11-16T22:11:51.345Z,28.50
2022-11-16T22:14:18.507Z,25.52
2022-11-16T22:16:46.680Z,22.83
2022-11-16T22:19:13.879Z,23.27
2022-11-16T22:21:41.269Z,24.27
2022-11-16T22:24:08.804Z,23.75
2022-11-16T22:26:36.230Z,24.20
2022-11-16T22:29:03.378Z,24.73
2022-11-16T22:31:30.732Z,22.88
2022-11-16T22:33:58.106Z,24.67
2022-11-16T22:36:25.539Z,25.23
2022-11-16T22:38:53.592Z,22.80
2022-11-16T22:41:21.063Z,26.73
2022-11-16T22:43:49.931Z,26.83
2022-11-16T22:46:17.076Z,26.75
2022-11-16T22:48:45.179Z,29.05
2022-11-16T22:51:25.654Z,28.92
2022-11-16T22:53:57.619Z,27.90
2022-11-16T22:56:25.621Z,27.67
2022-11-16T22:58:53.432Z,26.58
2022-11-16T23:01:21.501Z,25.00
2022-11-16T23:03:49.871Z,24.80
2022-11-16T23:06:18.425Z,22.85
2022-11-16T23:08:45.704Z,22.77
2022-11-16T23:11:39.896Z,21.95
2022-11-16T23:14:29.628Z,20.65
2022-11-16T23:16:57.484Z,23.48
2022-11-16T23:19:44.026Z,20.77
2022-11-16T23:22:36.143Z,20.73
2022-11-16T23:25:24.231Z,20.67
2022-11-16T23:28:18.871Z,20.00
2022-11-16T23:30:46.278Z,22.77
2022-11-16T23:33:13.724Z,21.33
2022-11-16T23:35:41.089Z,20.80
2022-11-16T23:38:08.559Z,21.92
2022-11-16T23:40:40.209Z,21.40
2022-11-16T23:43:28.844Z,21.67
2022-11-16T23:45:56.251Z,23.23
2022-11-16T23:48:24.202Z,19.92
2022-11-16T23:50:51.543Z,20.73
2022-11-16T23:53:19.043Z,23.13
2022-11-16T23:55:47.715Z,23.48
2022-11-16T23:58:15.577Z,22.85
